Time;durP1;ratioP1;P1;durP2;ratioP2;P2;SDS_P1;SDS_P2;PMS_P1;PMS_P2;Temp;Humidity;BMP_temperature;BMP_pressure;BME280_temperature;BME280_humidity;BME280_pressure;Samples;Min_cycle;Max_cycle;Signal;HPM_P1;HPM_P2
2022/01/02 00:00:14;;;;;;;6.60;5.30;;;5.60;99.90;;;;;;5031603;28;20500;-62
2022/01/02 00:02:41;;;;;;;6.80;5.47;;;5.60;99.90;;;;;;5029868;28;20029;-64
2022/01/02 00:05:15;;;;;;;7.30;5.60;;;5.60;99.90;;;;;;5030007;28;20040;-65
2022/01/02 00:07:48;;;;;;;6.93;5.40;;;5.60;99.90;;;;;;5029422;28;20036;-64
2022/01/02 00:10:14;;;;;;;9.55;5.85;;;5.60;99.90;;;;;;5045901;28;20045;-64
2022/01/02 00:12:49;;;;;;;7.95;5.85;;;5.60;99.90;;;;;;5044384;28;20041;-63
2022/01/02 00:15:17;;;;;;;10.55;6.57;;;5.60;99.90;;;;;;5022499;28;20025;-67
2022/01/02 00:17:43;;;;;;;8.00;5.95;;;5.60;99.90;;;;;;5029309;28;20510;-67
2022/01/02 00:20:12;;;;;;;7.95;5.90;;;5.60;99.90;;;;;;5030463;28;20041;-65
2022/01/02 00:22:41;;;;;;;18.45;10.68;;;5.60;99.90;;;;;;5029851;28;20456;-64
2022/01/02 00:25:24;;;;;;;14.13;8.90;;;5.60;99.90;;;;;;5094233;22;20124;-67
2022/01/02 00:27:52;;;;;;;19.25;10.50;;;5.60;99.90;;;;;;5001418;28;20042;-69
2022/01/02 00:30:18;;;;;;;14.80;8.70;;;5.60;99.90;;;;;;4991473;28;20188;-69
2022/01/02 00:32:44;;;;;;;11.07;7.50;;;5.60;99.90;;;;;;5004239;28;20508;-68
2022/01/02 00:35:10;;;;;;;12.95;7.22;;;5.60;99.90;;;;;;5018627;28;20018;-69
2022/01/02 00:37:35;;;;;;;25.00;13.75;;;5.60;99.90;;;;;;5010851;28;20193;-69
2022/01/02 00:40:03;;;;;;;20.42;11.50;;;5.60;99.90;;;;;;5008761;28;20060;-69
2022/01/02 00:42:31;;;;;;;15.35;9.32;;;5.60;99.90;;;;;;5014890;28;20026;-69
2022/01/02 00:45:13;;;;;;;19.30;10.80;;;5.60;99.90;;;;;;4998294;28;20026;-69
2022/01/02 00:47:50;;;;;;;12.43;7.82;;;5.60;99.90;;;;;;5002540;28;20032;-69
2022/01/02 00:50:46;;;;;;;11.93;7.30;;;5.60;99.90;;;;;;4993279;28;20115;-69
2022/01/02 00:53:17;;;;;;;11.57;7.10;;;5.60;99.90;;;;;;4998116;28;20021;-69
2022/01/02 00:55:43;;;;;;;12.90;7.50;;;5.50;99.90;;;;;;5010742;28;20022;-69
2022/01/02 00:58:19;;;;;;;10.90;6.45;;;5.50;99.90;;;;;;4995514;28;20172;-69
2022/01/02 01:00:50;;;;;;;12.70;7.80;;;5.50;99.90;;;;;;4996670;28;20042;-69
2022/01/02 01:03:29;;;;;;;13.05;8.02;;;5.50;99.90;;;;;;4992871;28;20040;-68
2022/01/02 01:05:57;;;;;;;13.75;7.90;;;5.50;99.90;;;;;;4979637;28;20437;-70
2022/01/02 01:08:23;;;;;;;14.32;8.05;;;5.50;99.90;;;;;;4995597;28;20029;-68
2022/01/02 01:10:50;;;;;;;12.05;7.68;;;5.40;99.90;;;;;;4984156;28;20031;-68
2022/01/02 01:13:16;;;;;;;11.90;7.38;;;5.30;99.90;;;;;;4990044;28;20026;-68
2022/01/02 01:15:42;;;;;;;13.38;7.82;;;5.30;99.90;;;;;;4992382;28;20458;-68
2022/01/02 01:18:09;;;;;;;11.23;6.80;;;5.30;99.90;;;;;;5003053;28;20073;-68
2022/01/02 01:20:41;;;;;;;13.48;7.13;;;5.20;99.90;;;;;;4992854;28;20165;-68
2022/01/02 01:23:07;;;;;;;10.00;6.60;;;5.20;99.90;;;;;;5002663;28;20080;-68
2022/01/02 01:25:36;;;;;;;9.15;6.63;;;5.20;99.90;;;;;;4989879;28;20590;-68
2022/01/02 01:28:02;;;;;;;10.52;6.60;;;5.10;99.90;;;;;;4999788;28;20108;-68
2022/01/02 01:30:28;;;;;;;9.80;6.28;;;5.10;99.90;;;;;;4995847;28;20195;-68
2022/01/02 01:32:54;;;;;;;9.80;6.28;;;5.10;99.90;;;;;;5024455;28;20026;-68
2022/01/02 01:35:22;;;;;;;11.80;7.22;;;5.10;99.90;;;;;;4993128;28;20049;-68
2022/01/02 01:37:48;;;;;;;12.77;6.82;;;5.10;99.90;;;;;;5004215;28;20033;-68
2022/01/02 01:40:16;;;;;;;10.55;6.60;;;5.10;99.90;;;;;;5004355;28;20060;-68
2022/01/02 01:42:54;;;;;;;10.05;6.65;;;5.10;99.90;;;;;;4988027;28;20030;-68
2022/01/02 01:47:54;;;;;;;10.00;6.38;;;4.90;99.90;;;;;;5012790;28;20033;-68
2022/01/02 01:50:23;;;;;;;11.70;6.47;;;4.90;99.90;;;;;;4983799;28;20098;-68
2022/01/02 01:52:49;;;;;;;165.20;56.17;;;4.90;99.90;;;;;;5004160;28;20032;-68
2022/01/02 01:55:16;;;;;;;17.50;9.85;;;4.90;99.90;;;;;;5010968;28;20505;-68
2022/01/02 01:57:42;;;;;;;13.68;7.90;;;4.90;99.90;;;;;;4997085;28;20021;-68
2022/01/02 02:00:16;;;;;;;25.35;11.77;;;4.80;99.90;;;;;;5012743;28;20125;-68
2022/01/02 02:02:43;;;;;;;40.38;16.80;;;4.80;99.90;;;;;;4998320;28;20505;-68
2022/01/02 02:05:10;;;;;;;21.88;11.82;;;4.90;99.90;;;;;;5002741;28;20390;-68
2022/01/02 02:07:40;;;;;;;13.15;7.63;;;4.90;99.90;;;;;;5007517;28;20551;-68
2022/01/02 02:10:23;;;;;;;17.52;8.90;;;4.90;99.90;;;;;;4997074;28;20026;-68
2022/01/02 02:12:51;;;;;;;16.38;8.02;;;4.90;99.90;;;;;;4995418;28;20029;-68
2022/01/02 02:15:17;;;;;;;14.63;7.80;;;4.90;99.90;;;;;;5020109;28;20032;-68
2022/01/02 02:17:45;;;;;;;12.90;7.75;;;4.90;99.90;;;;;;5004965;28;20389;-68
2022/01/02 02:20:37;;;;;;;14.85;7.55;;;4.90;99.90;;;;;;5012567;28;20477;-68
2022/01/02 02:23:04;;;;;;;13.77;8.55;;;4.90;99.90;;;;;;4995734;28;20046;-68
2022/01/02 02:25:35;;;;;;;14.13;8.48;;;4.90;99.90;;;;;;5004093;28;21982;-68
2022/01/02 02:28:04;;;;;;;14.38;8.25;;;4.90;99.90;;;;;;4993653;28;20026;-68
2022/01/02 02:30:32;;;;;;;14.93;8.85;;;4.90;99.90;;;;;;4994556;28;20030;-67
2022/01/02 02:33:00;;;;;;;14.05;8.38;;;4.80;99.90;;;;;;4995675;28;20487;-68
2022/01/02 02:35:28;;;;;;;19.40;9.00;;;4.70;99.90;;;;;;4995143;28;20516;-68
2022/01/02 02:37:54;;;;;;;12.68;8.00;;;4.60;99.90;;;;;;4995845;28;20226;-68
2022/01/02 02:40:25;;;;;;;13.13;7.75;;;4.50;99.90;;;;;;4996699;28;20025;-68
2022/01/02 02:51:32;;;;;;;15.05;8.07;;;4.50;99.90;;;;;;5012774;28;20060;-68
2022/01/02 02:53:58;;;;;;;13.48;7.85;;;4.50;99.90;;;;;;4997712;28;20075;-68
2022/01/02 02:56:24;;;;;;;13.45;7.97;;;4.50;99.90;;;;;;5010454;28;20030;-68
2022/01/02 02:58:55;;;;;;;12.13;7.82;;;4.50;99.90;;;;;;4994194;28;20041;-68
2022/01/02 03:01:22;;;;;;;13.15;7.22;;;4.50;99.90;;;;;;4995038;28;20068;-68
2022/01/02 03:03:49;;;;;;;11.38;7.25;;;4.50;99.90;;;;;;4995056;28;20036;-68
2022/01/02 03:06:15;;;;;;;12.10;7.15;;;4.50;99.90;;;;;;4995646;28;20032;-68
2022/01/02 03:08:43;;;;;;;13.25;7.22;;;4.50;99.90;;;;;;5006891;28;20033;-68
2022/01/02 03:11:14;;;;;;;13.63;7.43;;;4.50;99.90;;;;;;5004808;28;20022;-68
2022/01/02 03:13:41;;;;;;;12.05;6.85;;;4.50;99.90;;;;;;4991986;28;20417;-67
2022/01/02 03:16:06;;;;;;;12.30;7.25;;;4.50;99.90;;;;;;5002351;28;20030;-68
2022/01/02 03:18:32;;;;;;;14.73;6.78;;;4.50;99.90;;;;;;5006731;28;20034;-68
2022/01/02 03:20:58;;;;;;;15.70;7.22;;;4.40;99.90;;;;;;5004357;28;20025;-68
2022/01/02 03:23:24;;;;;;;14.77;6.95;;;4.40;99.90;;;;;;5003375;28;20026;-68
2022/01/02 03:25:50;;;;;;;10.30;6.60;;;4.30;99.90;;;;;;5010009;28;20087;-67
2022/01/02 03:28:16;;;;;;;11.20;6.97;;;4.30;99.90;;;;;;5009701;28;20063;-68
2022/01/02 03:30:42;;;;;;;12.25;6.50;;;4.20;99.90;;;;;;4993559;28;20112;-68
2022/01/02 03:33:08;;;;;;;9.45;5.90;;;4.20;99.90;;;;;;4991365;28;20026;-68
2022/01/02 03:35:34;;;;;;;9.45;6.43;;;4.20;99.90;;;;;;4994470;28;20060;-68
2022/01/02 03:38:01;;;;;;;12.40;7.03;;;4.20;99.90;;;;;;5005153;28;20064;-68
2022/01/02 03:40:27;;;;;;;12.00;6.82;;;4.30;99.90;;;;;;5005087;28;20112;-68
2022/01/02 03:42:53;;;;;;;11.38;7.55;;;4.30;99.90;;;;;;4994053;28;20037;-68
2022/01/02 03:45:19;;;;;;;10.55;6.95;;;4.30;99.90;;;;;;4989721;28;20029;-68
2022/01/02 03:47:44;;;;;;;11.52;6.90;;;4.30;99.90;;;;;;4995232;28;20034;-68
2022/01/02 03:50:10;;;;;;;12.32;6.80;;;4.30;99.90;;;;;;4995427;28;20028;-68
2022/01/02 03:52:36;;;;;;;13.10;7.72;;;4.30;99.90;;;;;;5027787;28;20033;-68
2022/01/02 03:55:03;;;;;;;8.15;6.35;;;4.30;99.90;;;;;;5005992;28;20026;-68
2022/01/02 03:57:28;;;;;;;22.70;10.70;;;4.30;99.90;;;;;;4988695;28;20049;-68
2022/01/02 03:59:54;;;;;;;13.38;7.60;;;4.30;99.90;;;;;;4996834;28;20052;-68
2022/01/02 04:02:20;;;;;;;13.05;7.53;;;4.20;99.90;;;;;;4993547;28;20041;-68
2022/01/02 04:04:45;;;;;;;13.32;7.85;;;4.10;99.90;;;;;;4992655;28;20548;-68
2022/01/02 04:07:11;;;;;;;13.07;7.50;;;4.10;99.90;;;;;;5009103;28;20449;-68
2022/01/02 04:09:37;;;;;;;14.50;7.55;;;4.20;99.90;;;;;;4993582;28;20018;-68
2022/01/02 04:12:03;;;;;;;13.98;7.88;;;4.20;99.90;;;;;;5007906;28;20108;-68
2022/01/02 04:14:28;;;;;;;13.48;8.18;;;4.20;99.90;;;;;;4993488;28;20030;-68
2022/01/02 04:16:54;;;;;;;13.73;8.23;;;4.20;99.90;;;;;;4998806;28;20501;-68
2022/01/02 04:19:23;;;;;;;12.85;7.57;;;4.20;99.90;;;;;;5002045;28;20512;-68
2022/01/02 04:21:48;;;;;;;14.95;8.25;;;4.20;99.90;;;;;;4999588;28;20041;-68
2022/01/02 04:24:14;;;;;;;15.18;8.02;;;4.20;99.90;;;;;;5003106;28;20031;-68
2022/01/02 04:26:40;;;;;;;14.93;8.45;;;4.20;99.90;;;;;;4984709;28;20397;-68
2022/01/02 04:29:05;;;;;;;14.80;8.43;;;4.10;99.90;;;;;;5015690;28;20033;-68
2022/01/02 04:31:31;;;;;;;15.50;8.23;;;4.10;99.90;;;;;;5009752;28;20396;-68
2022/01/02 04:33:57;;;;;;;14.13;8.55;;;4.10;99.90;;;;;;4992520;28;20575;-68
2022/01/02 04:36:23;;;;;;;14.63;8.38;;;4.10;99.90;;;;;;5008017;28;20028;-68
2022/01/02 04:38:48;;;;;;;14.60;8.07;;;4.00;99.90;;;;;;4998036;28;20076;-68
2022/01/02 04:41:14;;;;;;;12.88;7.95;;;4.00;99.90;;;;;;4998430;28;20379;-68
2022/01/02 04:43:40;;;;;;;13.13;8.02;;;4.10;99.90;;;;;;5009970;28;20030;-68
2022/01/02 04:46:06;;;;;;;13.80;7.72;;;4.10;99.90;;;;;;4997305;28;20121;-68
2022/01/02 04:48:32;;;;;;;16.42;8.48;;;4.10;99.90;;;;;;4993165;28;20034;-68
2022/01/02 04:50:58;;;;;;;15.07;8.32;;;4.10;99.90;;;;;;5001560;28;20144;-68
2022/01/02 04:53:23;;;;;;;11.57;7.70;;;4.10;99.90;;;;;;5025509;28;20029;-68
2022/01/02 04:55:50;;;;;;;14.50;8.27;;;4.10;99.90;;;;;;4993651;28;20060;-68
2022/01/02 04:58:16;;;;;;;12.73;8.50;;;4.10;99.90;;;;;;4992036;28;20393;-68
2022/01/02 05:00:42;;;;;;;19.27;9.40;;;4.20;99.90;;;;;;5001748;28;20117;-68
2022/01/02 05:03:08;;;;;;;15.85;8.90;;;4.20;99.90;;;;;;4992136;28;20167;-68
2022/01/02 05:05:34;;;;;;;14.75;9.15;;;4.20;99.90;;;;;;4992758;28;20036;-68
2022/01/02 05:07:59;;;;;;;15.35;8.82;;;4.20;99.90;;;;;;5010898;28;20465;-68
2022/01/02 05:10:25;;;;;;;15.52;9.02;;;4.20;99.90;;;;;;5007422;28;20083;-68
2022/01/02 05:12:51;;;;;;;14.00;8.57;;;4.20;99.90;;;;;;5016243;28;20483;-68
2022/01/02 05:15:17;;;;;;;13.98;8.75;;;4.20;99.90;;;;;;5010628;28;20046;-68
2022/01/02 05:17:45;;;;;;;14.05;8.77;;;4.20;99.90;;;;;;4992269;28;20402;-69
2022/01/02 05:20:11;;;;;;;14.38;8.75;;;4.30;99.90;;;;;;5004759;28;20030;-68
2022/01/02 05:22:37;;;;;;;15.43;8.77;;;4.20;99.90;;;;;;5000178;28;20093;-67
2022/01/02 05:25:04;;;;;;;16.42;8.73;;;4.30;99.90;;;;;;5005675;28;20026;-69
2022/01/02 05:27:30;;;;;;;15.82;9.52;;;4.30;99.90;;;;;;5001077;28;20052;-68
2022/01/02 05:29:56;;;;;;;15.35;9.05;;;4.30;99.90;;;;;;4996685;28;20442;-68
2022/01/02 05:32:22;;;;;;;14.65;8.63;;;4.30;99.90;;;;;;4994584;28;20032;-68
2022/01/02 05:34:47;;;;;;;12.68;8.63;;;4.30;99.90;;;;;;5003568;28;20148;-68
2022/01/02 05:37:13;;;;;;;12.55;7.93;;;4.30;99.90;;;;;;5002683;28;20473;-68
2022/01/02 05:39:39;;;;;;;15.68;9.15;;;4.30;99.90;;;;;;4996450;28;20056;-68
2022/01/02 05:42:05;;;;;;;13.15;8.88;;;4.30;99.90;;;;;;5014078;28;20080;-68
2022/01/02 05:44:31;;;;;;;15.80;9.60;;;4.30;99.90;;;;;;5003410;28;20048;-68
2022/01/02 05:46:57;;;;;;;13.90;8.10;;;4.30;99.90;;;;;;4995357;28;20124;-68
2022/01/02 05:49:23;;;;;;;14.80;8.60;;;4.30;99.90;;;;;;4993830;28;20451;-68
2022/01/02 05:51:49;;;;;;;13.13;8.98;;;4.40;99.90;;;;;;5009119;28;20054;-68
2022/01/02 05:54:14;;;;;;;13.85;9.18;;;4.40;99.90;;;;;;5015191;28;20061;-68
2022/01/02 05:56:40;;;;;;;12.00;8.25;;;4.40;99.90;;;;;;4999987;28;20026;-68
2022/01/02 05:59:06;;;;;;;14.68;7.90;;;4.40;99.90;;;;;;5015438;28;20030;-68
2022/01/02 06:01:32;;;;;;;12.82;8.25;;;4.40;99.90;;;;;;5012637;28;20125;-68
2022/01/02 06:03:57;;;;;;;13.20;8.38;;;4.40;99.90;;;;;;4996980;28;20037;-68
2022/01/02 06:06:23;;;;;;;16.02;8.93;;;4.50;99.90;;;;;;4996327;28;20030;-70
2022/01/02 06:08:49;;;;;;;16.33;9.32;;;4.40;99.90;;;;;;5004396;28;20120;-68
2022/01/02 06:11:14;;;;;;;15.88;9.18;;;4.40;99.90;;;;;;4990622;28;20546;-68
2022/01/02 06:13:40;;;;;;;15.40;9.32;;;4.40;99.90;;;;;;4997248;28;20432;-68
2022/01/02 06:16:07;;;;;;;13.30;8.95;;;4.40;99.90;;;;;;4999862;28;20053;-68
2022/01/02 06:18:34;;;;;;;15.05;9.05;;;4.40;99.90;;;;;;5000987;28;20115;-68
2022/01/02 06:21:00;;;;;;;16.40;9.30;;;4.40;99.90;;;;;;4996117;28;20117;-69
2022/01/02 06:23:25;;;;;;;14.45;9.02;;;4.40;99.90;;;;;;5006321;28;20121;-69
2022/01/02 06:25:51;;;;;;;13.60;9.45;;;4.40;99.90;;;;;;4999585;28;20447;-69
2022/01/02 06:28:17;;;;;;;15.95;9.48;;;4.40;99.90;;;;;;5003534;28;20026;-69
2022/01/02 06:30:42;;;;;;;16.02;9.18;;;4.40;99.90;;;;;;4994699;28;20029;-69
2022/01/02 06:33:09;;;;;;;15.18;9.50;;;4.40;99.90;;;;;;5005338;28;20422;-69
2022/01/02 06:35:35;;;;;;;16.80;9.35;;;4.40;99.90;;;;;;4994944;28;20053;-69
2022/01/02 06:38:13;;;;;;;14.82;8.57;;;4.30;99.90;;;;;;4994197;28;20025;-69
2022/01/02 06:40:39;;;;;;;15.23;8.38;;;4.30;99.90;;;;;;4995023;28;20389;-69
2022/01/02 06:43:05;;;;;;;13.93;8.32;;;4.30;99.90;;;;;;5009036;28;20040;-69
2022/01/02 06:45:31;;;;;;;12.68;7.80;;;4.30;99.90;;;;;;4994852;28;20065;-69
2022/01/02 06:47:57;;;;;;;15.15;8.85;;;4.30;99.90;;;;;;4995160;28;20037;-69
2022/01/02 06:50:22;;;;;;;14.13;8.40;;;4.30;99.90;;;;;;5011017;28;20033;-69
2022/01/02 06:52:48;;;;;;;11.70;7.78;;;4.30;99.90;;;;;;5003630;28;20049;-69
2022/01/02 06:55:14;;;;;;;17.33;9.45;;;4.30;99.90;;;;;;4995631;28;20057;-68
2022/01/02 06:57:39;;;;;;;14.00;8.50;;;4.40;99.90;;;;;;4997761;28;20029;-69
2022/01/02 07:00:06;;;;;;;12.82;8.30;;;4.40;99.90;;;;;;5003185;28;20423;-69
2022/01/02 07:02:35;;;;;;;14.85;8.40;;;4.30;99.90;;;;;;4994548;28;20030;-68
2022/01/02 07:05:01;;;;;;;16.38;8.70;;;4.30;99.90;;;;;;5009243;28;20474;-69
2022/01/02 07:07:26;;;;;;;14.13;7.90;;;4.40;99.90;;;;;;5013525;28;20040;-69
2022/01/02 07:09:52;;;;;;;15.65;7.72;;;4.40;99.90;;;;;;5011272;28;20041;-70
2022/01/02 07:12:18;;;;;;;13.85;8.18;;;4.40;99.90;;;;;;4994464;28;20026;-69
2022/01/02 07:14:43;;;;;;;15.25;8.25;;;4.40;99.90;;;;;;5005192;28;20065;-69
2022/01/02 07:17:09;;;;;;;15.15;8.55;;;4.50;99.90;;;;;;4994599;28;20049;-70
2022/01/02 07:19:35;;;;;;;15.35;8.52;;;4.40;99.90;;;;;;4994838;28;20101;-70
2022/01/02 07:22:00;;;;;;;13.18;8.10;;;4.40;99.90;;;;;;5027911;28;20022;-69
2022/01/02 07:24:27;;;;;;;14.27;8.05;;;4.40;99.90;;;;;;4994027;28;20018;-69
2022/01/02 07:26:53;;;;;;;16.48;8.82;;;4.40;99.90;;;;;;4995539;28;20486;-69
2022/01/02 07:29:19;;;;;;;13.48;8.30;;;4.40;99.90;;;;;;4992300;28;20145;-69
2022/01/02 07:31:45;;;;;;;14.88;8.45;;;4.40;99.90;;;;;;4993486;28;20526;-69
2022/01/02 07:34:11;;;;;;;14.48;9.05;;;4.40;99.90;;;;;;4994246;28;20033;-69
2022/01/02 07:36:39;;;;;;;12.55;8.15;;;4.30;99.90;;;;;;5001090;28;20018;-69
2022/01/02 07:39:06;;;;;;;18.45;8.50;;;4.40;99.90;;;;;;4994027;28;20474;-70
2022/01/02 07:41:32;;;;;;;14.45;8.40;;;4.40;99.90;;;;;;4995252;28;20033;-69
2022/01/02 07:43:58;;;;;;;17.05;9.30;;;4.40;99.90;;;;;;4993933;28;20100;-70
2022/01/02 07:46:24;;;;;;;16.25;8.88;;;4.30;99.90;;;;;;4998257;28;20025;-69
2022/01/02 07:48:52;;;;;;;13.30;8.32;;;4.30;99.90;;;;;;4993945;28;20163;-69
2022/01/02 07:51:17;;;;;;;15.57;8.48;;;4.30;99.90;;;;;;4994215;28;20026;-70
2022/01/02 07:53:43;;;;;;;14.65;8.13;;;4.30;99.90;;;;;;5086144;23;20071;-67
2022/01/02 07:56:10;;;;;;;13.50;7.63;;;4.30;99.90;;;;;;5028864;28;20464;-66
2022/01/02 07:58:35;;;;;;;14.43;7.80;;;4.30;99.90;;;;;;5031479;28;20029;-64
2022/01/02 08:01:01;;;;;;;14.75;7.78;;;4.40;99.90;;;;;;5030577;28;20029;-64
2022/01/02 08:03:27;;;;;;;13.65;7.63;;;4.40;99.90;;;;;;5031261;28;20030;-66
2022/01/02 08:05:52;;;;;;;14.75;7.47;;;4.40;99.90;;;;;;5031423;28;20041;-65
2022/01/02 08:08:18;;;;;;;12.35;7.63;;;4.50;99.90;;;;;;5036553;28;20036;-65
2022/01/02 08:10:44;;;;;;;13.02;7.95;;;4.50;99.90;;;;;;5038532;28;20113;-65
2022/01/02 08:13:09;;;;;;;16.58;10.18;;;4.60;99.90;;;;;;5036384;28;20052;-66
2022/01/02 08:15:35;;;;;;;27.67;15.45;;;4.60;99.90;;;;;;5029473;28;20029;-62
2022/01/02 08:18:01;;;;;;;15.05;8.70;;;4.70;99.90;;;;;;5029902;28;20057;-65
2022/01/02 08:20:27;;;;;;;19.88;11.10;;;4.70;99.90;;;;;;5026835;28;20030;-64
2022/01/02 08:22:55;;;;;;;20.48;11.35;;;4.80;99.90;;;;;;5033376;28;20372;-65
2022/01/02 08:25:21;;;;;;;16.20;9.48;;;4.80;99.90;;;;;;5030246;28;20615;-65
2022/01/02 08:27:46;;;;;;;17.05;10.77;;;4.90;99.90;;;;;;5041588;28;20123;-65
2022/01/02 08:30:12;;;;;;;15.93;9.68;;;4.90;99.90;;;;;;5041470;28;20098;-65
2022/01/02 08:32:38;;;;;;;13.23;8.82;;;4.90;99.90;;;;;;5030631;28;20021;-66
2022/01/02 08:35:08;;;;;;;12.77;9.18;;;5.00;99.90;;;;;;5030722;28;20017;-65
2022/01/02 08:37:33;;;;;;;15.30;8.63;;;5.00;99.90;;;;;;5029113;28;20536;-65
2022/01/02 08:39:59;;;;;;;13.13;8.57;;;5.10;99.90;;;;;;5030519;28;20124;-64
2022/01/02 08:42:25;;;;;;;16.55;8.32;;;5.10;99.90;;;;;;5029228;28;20068;-67
2022/01/02 08:44:50;;;;;;;11.73;7.72;;;5.20;99.90;;;;;;5029799;28;20489;-65
2022/01/02 08:47:16;;;;;;;12.15;8.10;;;5.20;99.90;;;;;;5029371;28;20476;-66
2022/01/02 08:49:42;;;;;;;20.27;11.10;;;5.20;99.90;;;;;;5031682;28;20033;-67
2022/01/02 08:52:08;;;;;;;14.30;8.98;;;5.30;99.90;;;;;;5030104;28;20033;-68
2022/01/02 08:54:34;;;;;;;17.40;10.20;;;5.40;99.90;;;;;;5030611;28;20021;-66
2022/01/02 08:57:02;;;;;;;17.33;10.52;;;5.40;99.90;;;;;;5029375;28;20029;-66
2022/01/02 08:59:28;;;;;;;15.38;9.77;;;5.50;99.90;;;;;;5024514;28;20029;-66
2022/01/02 09:01:54;;;;;;;14.95;9.40;;;5.60;99.90;;;;;;5028257;28;20028;-65
2022/01/02 09:04:20;;;;;;;14.30;9.75;;;5.60;99.90;;;;;;5030954;28;20120;-66
2022/01/02 09:06:46;;;;;;;16.33;8.73;;;5.70;99.90;;;;;;5029911;28;20112;-67
2022/01/02 09:09:12;;;;;;;15.13;9.48;;;5.80;99.90;;;;;;5029367;28;20458;-65
2022/01/02 09:11:37;;;;;;;14.35;7.47;;;5.80;99.90;;;;;;5043899;28;20532;-66
2022/01/02 09:14:03;;;;;;;13.07;7.70;;;5.90;99.90;;;;;;5030025;28;20473;-66
2022/01/02 09:16:33;;;;;;;14.65;8.02;;;5.90;99.90;;;;;;5032588;28;20033;-66
2022/01/02 09:19:00;;;;;;;11.95;7.50;;;5.90;99.90;;;;;;5036241;28;20405;-65
2022/01/02 09:21:26;;;;;;;13.57;8.25;;;5.90;99.90;;;;;;5030162;28;20029;-66
2022/01/02 09:23:51;;;;;;;14.75;8.90;;;6.00;99.90;;;;;;5030522;28;20393;-65
2022/01/02 09:26:17;;;;;;;13.85;8.82;;;6.00;99.90;;;;;;5029873;28;20405;-66
2022/01/02 09:28:42;;;;;;;12.27;8.63;;;6.00;99.90;;;;;;5028598;28;20120;-66
2022/01/02 09:31:08;;;;;;;13.70;9.02;;;6.10;99.90;;;;;;5029977;28;20496;-66
2022/01/02 09:33:34;;;;;;;15.65;8.30;;;6.10;99.90;;;;;;5033202;28;20516;-67
2022/01/02 09:35:59;;;;;;;16.67;9.05;;;6.10;99.90;;;;;;5030080;28;20026;-66
2022/01/02 09:38:25;;;;;;;17.92;10.73;;;6.10;99.90;;;;;;5029038;28;20091;-67
2022/01/02 09:40:51;;;;;;;13.90;9.13;;;6.10;99.90;;;;;;5030195;28;20029;-66
2022/01/02 09:43:18;;;;;;;12.65;8.45;;;6.20;99.90;;;;;;5030504;28;20026;-66
2022/01/02 09:45:48;;;;;;;16.48;9.30;;;6.20;99.90;;;;;;5029839;28;20061;-66
2022/01/02 09:48:14;;;;;;;14.82;8.50;;;6.30;99.90;;;;;;5028614;28;20030;-66
2022/01/02 09:50:40;;;;;;;13.65;8.48;;;6.30;99.90;;;;;;5029213;28;20025;-67
2022/01/02 09:53:07;;;;;;;13.23;8.13;;;6.40;99.90;;;;;;5028739;28;20026;-67
2022/01/02 09:55:33;;;;;;;11.48;7.28;;;6.40;99.90;;;;;;5029708;28;20112;-67
2022/01/02 09:58:00;;;;;;;10.57;7.60;;;6.50;99.90;;;;;;5028802;28;20413;-66
2022/01/02 10:00:28;;;;;;;13.23;8.13;;;6.50;99.90;;;;;;5029565;28;20059;-66
2022/01/02 10:02:57;;;;;;;11.27;8.05;;;6.60;99.90;;;;;;5029212;28;20033;-67
2022/01/02 10:05:26;;;;;;;10.65;7.18;;;6.60;99.90;;;;;;5030737;28;20057;-66
2022/01/02 10:07:53;;;;;;;11.65;7.78;;;6.70;99.90;;;;;;5029430;28;20033;-65
2022/01/02 10:10:19;;;;;;;10.00;6.97;;;6.70;99.90;;;;;;5031659;28;20485;-65
2022/01/02 10:12:45;;;;;;;12.40;7.32;;;6.70;99.90;;;;;;5031395;28;20021;-66
2022/01/02 10:15:17;;;;;;;10.25;7.05;;;6.70;99.90;;;;;;5037522;28;20510;-65
2022/01/02 10:18:02;;;;;;;17.10;10.02;;;6.80;99.90;;;;;;5035453;28;20030;-67
2022/01/02 10:20:31;;;;;;;13.63;7.90;;;6.90;99.90;;;;;;5055381;28;20063;-67
2022/01/02 10:23:15;;;;;;;11.55;7.75;;;6.90;99.90;;;;;;5032590;28;20052;-66
2022/01/02 10:25:51;;;;;;;13.27;6.95;;;7.00;99.90;;;;;;5032814;28;20055;-65
2022/01/02 10:28:38;;;;;;;11.77;6.50;;;7.00;99.90;;;;;;5031930;28;20555;-66
2022/01/02 10:31:11;;;;;;;11.63;7.50;;;7.10;99.90;;;;;;5028653;28;20064;-66
2022/01/02 10:33:57;;;;;;;12.63;7.32;;;7.10;99.90;;;;;;5033360;28;20116;-66
2022/01/02 10:36:30;;;;;;;11.05;7.18;;;7.20;99.90;;;;;;5033789;28;20094;-67
2022/01/02 10:39:05;;;;;;;11.82;6.50;;;7.30;99.90;;;;;;5033999;28;20452;-67
2022/01/02 10:41:52;;;;;;;9.90;6.35;;;7.30;99.90;;;;;;5032461;28;20025;-67
2022/01/02 10:44:26;;;;;;;7.03;5.30;;;7.30;99.90;;;;;;5032336;28;20064;-66
2022/01/02 10:47:24;;;;;;;10.98;7.50;;;7.40;99.90;;;;;;5032429;28;20033;-66
2022/01/02 10:50:04;;;;;;;9.27;5.45;;;7.40;99.90;;;;;;5038332;28;20045;-65
2022/01/02 10:52:38;;;;;;;8.98;5.72;;;7.50;99.90;;;;;;5029702;28;20052;-66
2022/01/02 10:55:13;;;;;;;8.75;5.80;;;7.50;99.90;;;;;;5023902;28;20025;-67
2022/01/02 10:57:42;;;;;;;8.48;5.10;;;7.50;99.90;;;;;;5031450;28;20055;-66
2022/01/02 11:00:09;;;;;;;8.15;5.38;;;7.60;99.90;;;;;;5032232;28;20092;-65
2022/01/02 11:02:36;;;;;;;10.48;7.47;;;7.60;99.90;;;;;;5031619;28;20096;-66
2022/01/02 11:05:10;;;;;;;9.43;5.40;;;7.70;99.90;;;;;;5032388;28;20440;-67
2022/01/02 11:07:40;;;;;;;5.82;4.72;;;7.70;99.90;;;;;;5028340;28;20403;-66
2022/01/02 11:10:08;;;;;;;26.50;16.75;;;7.80;99.90;;;;;;5035189;28;20062;-67
2022/01/02 11:12:34;;;;;;;6.22;5.10;;;7.80;99.90;;;;;;5027950;28;20116;-67
2022/01/02 11:15:01;;;;;;;5.85;4.72;;;7.90;99.90;;;;;;5023854;28;20025;-64
2022/01/02 11:17:27;;;;;;;9.85;5.18;;;8.00;99.90;;;;;;5028278;28;20029;-65
2022/01/02 11:19:53;;;;;;;8.07;4.80;;;8.00;99.90;;;;;;5023860;28;20041;-66
2022/01/02 11:22:52;;;;;;;7.50;5.07;;;8.00;99.90;;;;;;5031316;28;20041;-65
2022/01/02 11:25:37;;;;;;;7.68;5.47;;;8.10;99.90;;;;;;5022013;28;20071;-67
2022/01/02 11:28:09;;;;;;;9.07;5.95;;;8.10;99.90;;;;;;5031062;28;20030;-65
2022/01/02 11:30:43;;;;;;;7.00;5.65;;;8.10;99.90;;;;;;5030105;28;20057;-66
2022/01/02 11:33:15;;;;;;;7.65;5.38;;;8.20;99.90;;;;;;5030889;28;20049;-66
2022/01/02 11:35:49;;;;;;;8.70;5.30;;;8.20;99.90;;;;;;5031531;28;20033;-64
2022/01/02 11:38:21;;;;;;;6.82;5.18;;;8.20;99.90;;;;;;5028344;28;20366;-65
2022/01/02 11:40:56;;;;;;;8.07;5.30;;;8.30;99.90;;;;;;5030240;28;20410;-66
2022/01/02 11:43:47;;;;;;;7.35;5.32;;;8.30;99.90;;;;;;5032125;28;20021;-66
2022/01/02 11:46:24;;;;;;;8.02;5.30;;;8.40;99.90;;;;;;5019904;28;20431;-67
2022/01/02 11:49:05;;;;;;;11.50;7.35;;;8.40;99.90;;;;;;5030270;28;20091;-67
2022/01/02 11:51:59;;;;;;;7.90;5.90;;;8.40;99.90;;;;;;5030862;28;20021;-67
2022/01/02 11:54:40;;;;;;;9.20;6.18;;;8.40;99.90;;;;;;5029320;28;20460;-67
2022/01/02 11:57:12;;;;;;;9.25;6.28;;;8.40;99.90;;;;;;5023274;28;20389;-66
2022/01/02 11:59:44;;;;;;;14.50;7.30;;;8.40;99.90;;;;;;5045632;28;20025;-67
2022/01/02 12:02:18;;;;;;;20.85;9.60;;;8.50;99.90;;;;;;5030606;28;20124;-67
2022/01/02 12:07:34;;;;;;;21.00;11.73;;;8.60;99.90;;;;;;5030690;28;20064;-67
2022/01/02 12:12:59;;;;;;;7.70;5.20;;;8.70;99.90;;;;;;5035189;28;20030;-66
2022/01/02 12:15:25;;;;;;;6.82;4.95;;;8.80;99.90;;;;;;5030240;28;20470;-66
2022/01/02 12:18:12;;;;;;;6.65;4.20;;;8.80;99.90;;;;;;5027617;28;20108;-66
2022/01/02 12:20:50;;;;;;;5.63;3.90;;;8.90;99.90;;;;;;5030463;28;20051;-65
2022/01/02 12:23:40;;;;;;;5.50;3.97;;;9.00;99.90;;;;;;5038247;28;20176;-65
2022/01/02 12:26:24;;;;;;;4.70;3.67;;;9.10;99.90;;;;;;5018475;28;20030;-68
2022/01/02 12:29:06;;;;;;;4.63;3.50;;;9.10;99.90;;;;;;5029959;28;20033;-67
2022/01/02 12:31:38;;;;;;;4.83;4.00;;;9.20;99.90;;;;;;5030014;28;20105;-67
2022/01/02 12:34:14;;;;;;;5.55;3.40;;;9.20;99.90;;;;;;5030371;28;20489;-67
2022/01/02 12:36:42;;;;;;;3.53;2.65;;;9.40;99.90;;;;;;5032959;28;20029;-67
2022/01/02 12:39:13;;;;;;;3.17;2.60;;;9.60;99.90;;;;;;5028139;28;20055;-69
2022/01/02 12:41:42;;;;;;;6.07;2.53;;;9.80;99.90;;;;;;5028408;28;20082;-71
2022/01/02 12:44:15;;;;;;;3.42;2.38;;;10.00;99.90;;;;;;5030123;28;20412;-68
2022/01/02 12:47:01;;;;;;;2.33;2.10;;;10.10;99.90;;;;;;5029607;28;20053;-68
2022/01/02 12:49:33;;;;;;;3.55;2.75;;;10.30;99.90;;;;;;5028077;28;20502;-66
2022/01/02 12:52:02;;;;;;;3.58;2.75;;;10.40;99.90;;;;;;5029423;28;20026;-67
2022/01/02 12:54:30;;;;;;;5.38;3.90;;;10.50;99.90;;;;;;5030453;28;20441;-68
2022/01/02 12:57:17;;;;;;;3.53;2.55;;;10.70;99.90;;;;;;5030450;28;20026;-68
2022/01/02 12:59:47;;;;;;;3.85;2.58;;;10.90;99.90;;;;;;5030494;28;20528;-68
2022/01/02 13:02:14;;;;;;;4.22;2.58;;;11.10;99.90;;;;;;5030404;28;20559;-68
2022/01/02 13:04:41;;;;;;;4.57;3.00;;;11.30;99.90;;;;;;5030654;28;20132;-67
2022/01/02 13:07:14;;;;;;;4.95;2.63;;;11.40;99.90;;;;;;5029415;28;20056;-68
2022/01/02 13:09:43;;;;;;;2.00;1.80;;;11.60;99.90;;;;;;5036560;28;20061;-68
2022/01/02 13:12:12;;;;;;;4.30;2.08;;;11.80;99.90;;;;;;5038443;28;20021;-68